메인 페이지
METAR-TAF:

METAR-TAF

공항 :

애틀랜타, 조지아, 미국

위도: 33-46-39N, 경도: 084-31-28W, 고도: 256m

현재 날씨관측

예보는 27분 전, 00:53시(UTC)에 발표되었습니다.
무풍
온도 11°C
습도 58%
기압 1018 hPa
시정: 16.1km
고도 4500ft 상공 흐림

METAR: KFTY 170053Z 00000KT 10SM OVC045 11/03 A3006 RMK AO2 SLP182 T01060028

시각: 20:20 (01:20 UTC)

예보

예보는 21분 전, 00:59시(UTC)에 발표되었습니다.
예보 대상 시간: 17일 01시부터 17일 24시까지 (UTC)
여러 방향의 바람 3kt
시정: 10km
고도 4500ft 상공 구름 많음
17일 0300시부터 (UTC)
여러 방향의 바람 3kt
시정: 10km
맑음
17일 1500시부터 (UTC)
여러 방향의 바람 5kt
시정: 10km
고도 25000ft 상공 구름 조금

TAF: KFTY 170059Z 1701/1724 VRB03KT P6SM BKN045 FM170300 VRB03KT P6SM SKC FM171500 VRB05KT P6SM FEW250

4,000개 이상의 공항 관측 자료 및 예보 (METAR 및 TAF 보고).

지도상에서 검색 가능한 기상관측소가 노란 점과 빨간 점으로 표시되어 있습니다.

기상관측소 명을 보려면 표시 위로 마우스를 이동하세요.

날씨 관측과 예보를 보려면 클릭하세요.

지도 변경 : 확대하려면 엑스 표시가 있는 녹색 버튼, 축소하려면 빼기 표시가 있는 녹색 버튼, 다음 페이지의 지도를 보려면 녹색 화살표를 클릭하세요.


METAR-TAF: